sensor_id;sensor_type;location;lat;lon;timestamp;P1;durP1;ratioP1;P2;durP2;ratioP2
32788;SDS011;19141;48.980;8.410;2023-04-06T04:22:32;3.38;;;2.30;;
32788;SDS011;19141;48.980;8.410;2023-04-06T04:24:58;1.65;;;1.55;;
32788;SDS011;19141;48.980;8.410;2023-04-06T04:27:25;3.58;;;2.30;;
32788;SDS011;19141;48.980;8.410;2023-04-06T04:29:51;2.95;;;2.30;;
32788;SDS011;19141;48.980;8.410;2023-04-06T04:32:16;2.53;;;1.90;;
32788;SDS011;19141;48.980;8.410;2023-04-06T04:34:43;3.42;;;2.83;;
32788;SDS011;19141;48.980;8.410;2023-04-06T04:37:17;2.85;;;2.33;;
32788;SDS011;19141;48.980;8.410;2023-04-06T04:39:50;3.28;;;2.47;;
32788;SDS011;19141;48.980;8.410;2023-04-06T04:42:16;3.42;;;2.53;;
32788;SDS011;19141;48.980;8.410;2023-04-06T04:44:47;4.93;;;2.53;;
32788;SDS011;19141;48.980;8.410;2023-04-06T04:47:18;3.55;;;3.00;;
32788;SDS011;19141;48.980;8.410;2023-04-06T04:49:45;3.92;;;2.15;;
32788;SDS011;19141;48.980;8.410;2023-04-06T04:52:15;3.20;;;2.05;;
32788;SDS011;19141;48.980;8.410;2023-04-06T04:54:58;3.33;;;2.03;;
32788;SDS011;19141;48.980;8.410;2023-04-06T04:57:27;3.15;;;2.28;;
32788;SDS011;19141;48.980;8.410;2023-04-06T04:59:52;3.38;;;2.30;;
32788;SDS011;19141;48.980;8.410;2023-04-06T05:02:18;2.30;;;2.10;;
32788;SDS011;19141;48.980;8.410;2023-04-06T05:05:07;2.20;;;1.90;;
32788;SDS011;19141;48.980;8.410;2023-04-06T05:07:32;2.83;;;2.33;;
32788;SDS011;19141;48.980;8.410;2023-04-06T05:09:59;3.75;;;2.92;;
32788;SDS011;19141;48.980;8.410;2023-04-06T05:12:29;5.55;;;2.67;;
32788;SDS011;19141;48.980;8.410;2023-04-06T05:15:06;3.83;;;2.90;;
32788;SDS011;19141;48.980;8.410;2023-04-06T05:17:32;4.07;;;3.17;;
32788;SDS011;19141;48.980;8.410;2023-04-06T05:19:58;7.90;;;3.00;;
32788;SDS011;19141;48.980;8.410;2023-04-06T05:22:25;3.35;;;2.15;;
32788;SDS011;19141;48.980;8.410;2023-04-06T05:25:02;2.95;;;2.58;;
32788;SDS011;19141;48.980;8.410;2023-04-06T05:27:29;2.53;;;2.13;;
32788;SDS011;19141;48.980;8.410;2023-04-06T05:29:56;4.07;;;2.67;;
32788;SDS011;19141;48.980;8.410;2023-04-06T05:32:23;2.20;;;2.00;;
32788;SDS011;19141;48.980;8.410;2023-04-06T05:34:50;2.40;;;2.20;;
32788;SDS011;19141;48.980;8.410;2023-04-06T05:37:16;2.78;;;2.10;;
32788;SDS011;19141;48.980;8.410;2023-04-06T05:39:41;3.88;;;2.28;;
32788;SDS011;19141;48.980;8.410;2023-04-06T05:42:07;2.10;;;1.73;;
32788;SDS011;19141;48.980;8.410;2023-04-06T05:44:50;3.17;;;2.35;;
32788;SDS011;19141;48.980;8.410;2023-04-06T05:47:16;3.25;;;2.03;;
32788;SDS011;19141;48.980;8.410;2023-04-06T05:49:45;2.72;;;2.50;;
32788;SDS011;19141;48.980;8.410;2023-04-06T05:52:19;4.50;;;2.90;;
32788;SDS011;19141;48.980;8.410;2023-04-06T05:54:46;4.25;;;2.78;;
32788;SDS011;19141;48.980;8.410;2023-04-06T05:57:12;2.42;;;1.92;;
32788;SDS011;19141;48.980;8.410;2023-04-06T05:59:38;3.47;;;2.60;;
32788;SDS011;19141;48.980;8.410;2023-04-06T06:02:04;2.50;;;2.30;;
32788;SDS011;19141;48.980;8.410;2023-04-06T06:04:32;4.25;;;2.60;;
32788;SDS011;19141;48.980;8.410;2023-04-06T06:06:58;4.35;;;2.90;;
32788;SDS011;19141;48.980;8.410;2023-04-06T06:09:31;3.25;;;2.75;;
32788;SDS011;19141;48.980;8.410;2023-04-06T06:12:09;2.78;;;2.30;;
32788;SDS011;19141;48.980;8.410;2023-04-06T06:14:35;3.53;;;2.80;;
32788;SDS011;19141;48.980;8.410;2023-04-06T06:17:00;3.83;;;3.00;;
32788;SDS011;19141;48.980;8.410;2023-04-06T06:19:27;3.90;;;2.95;;
32788;SDS011;19141;48.980;8.410;2023-04-06T06:21:56;5.10;;;2.95;;
32788;SDS011;19141;48.980;8.410;2023-04-06T06:24:22;3.08;;;2.65;;
32788;SDS011;19141;48.980;8.410;2023-04-06T06:26:48;4.13;;;3.33;;
32788;SDS011;19141;48.980;8.410;2023-04-06T06:29:15;4.28;;;2.80;;
32788;SDS011;19141;48.980;8.410;2023-04-06T06:31:41;3.85;;;2.35;;
32788;SDS011;19141;48.980;8.410;2023-04-06T06:34:06;4.88;;;3.00;;
32788;SDS011;19141;48.980;8.410;2023-04-06T06:36:34;4.80;;;3.38;;
32788;SDS011;19141;48.980;8.410;2023-04-06T06:39:01;6.82;;;2.95;;
32788;SDS011;19141;48.980;8.410;2023-04-06T06:41:29;3.35;;;2.55;;
32788;SDS011;19141;48.980;8.410;2023-04-06T06:43:57;5.50;;;2.42;;
32788;SDS011;19141;48.980;8.410;2023-04-06T06:46:22;2.55;;;2.35;;
32788;SDS011;19141;48.980;8.410;2023-04-06T06:48:48;4.90;;;2.85;;
32788;SDS011;19141;48.980;8.410;2023-04-06T06:51:13;3.70;;;2.63;;
32788;SDS011;19141;48.980;8.410;2023-04-06T06:53:39;4.07;;;2.72;;
32788;SDS011;19141;48.980;8.410;2023-04-06T06:56:05;2.85;;;2.15;;
32788;SDS011;19141;48.980;8.410;2023-04-06T06:58:31;2.95;;;1.92;;
32788;SDS011;19141;48.980;8.410;2023-04-06T07:00:58;3.15;;;2.45;;
32788;SDS011;19141;48.980;8.410;2023-04-06T07:03:25;3.77;;;2.23;;
32788;SDS011;19141;48.980;8.410;2023-04-06T07:05:51;4.05;;;2.08;;
32788;SDS011;19141;48.980;8.410;2023-04-06T07:08:21;5.75;;;2.90;;
32788;SDS011;19141;48.980;8.410;2023-04-06T07:10:48;1.73;;;1.63;;
32788;SDS011;19141;48.980;8.410;2023-04-06T07:13:14;3.15;;;2.25;;
32788;SDS011;19141;48.980;8.410;2023-04-06T07:15:47;2.40;;;1.98;;
32788;SDS011;19141;48.980;8.410;2023-04-06T07:18:13;2.97;;;2.28;;
32788;SDS011;19141;48.980;8.410;2023-04-06T07:20:39;3.13;;;2.08;;
32788;SDS011;19141;48.980;8.410;2023-04-06T07:23:04;2.13;;;1.90;;
32788;SDS011;19141;48.980;8.410;2023-04-06T07:25:30;3.33;;;2.10;;
32788;SDS011;19141;48.980;8.410;2023-04-06T07:27:56;4.47;;;2.60;;
32788;SDS011;19141;48.980;8.410;2023-04-06T07:30:22;2.73;;;2.23;;
32788;SDS011;19141;48.980;8.410;2023-04-06T07:32:50;3.58;;;2.47;;
32788;SDS011;19141;48.980;8.410;2023-04-06T07:35:16;3.42;;;2.67;;
32788;SDS011;19141;48.980;8.410;2023-04-06T07:37:41;2.58;;;2.30;;
32788;SDS011;19141;48.980;8.410;2023-04-06T07:40:07;3.28;;;2.55;;
32788;SDS011;19141;48.980;8.410;2023-04-06T07:42:34;3.47;;;2.50;;
32788;SDS011;19141;48.980;8.410;2023-04-06T07:45:00;3.13;;;2.60;;
32788;SDS011;19141;48.980;8.410;2023-04-06T07:47:26;4.40;;;2.95;;
32788;SDS011;19141;48.980;8.410;2023-04-06T07:49:51;3.60;;;2.53;;
32788;SDS011;19141;48.980;8.410;2023-04-06T07:54:45;7.47;;;2.63;;
32788;SDS011;19141;48.980;8.410;2023-04-06T07:57:10;2.83;;;2.42;;
32788;SDS011;19141;48.980;8.410;2023-04-06T07:59:36;5.93;;;2.42;;
32788;SDS011;19141;48.980;8.410;2023-04-06T08:02:01;3.05;;;2.40;;
32788;SDS011;19141;48.980;8.410;2023-04-06T08:04:27;3.75;;;3.00;;
32788;SDS011;19141;48.980;8.410;2023-04-06T08:06:52;4.07;;;2.85;;
32788;SDS011;19141;48.980;8.410;2023-04-06T08:09:18;3.60;;;2.60;;
32788;SDS011;19141;48.980;8.410;2023-04-06T08:11:44;4.45;;;2.63;;
32788;SDS011;19141;48.980;8.410;2023-04-06T08:14:11;4.05;;;2.42;;
32788;SDS011;19141;48.980;8.410;2023-04-06T08:16:36;4.72;;;3.03;;
32788;SDS011;19141;48.980;8.410;2023-04-06T08:19:02;4.05;;;2.97;;
32788;SDS011;19141;48.980;8.410;2023-04-06T08:21:27;4.03;;;2.60;;
32788;SDS011;19141;48.980;8.410;2023-04-06T08:23:52;2.63;;;2.20;;
32788;SDS011;19141;48.980;8.410;2023-04-06T08:26:18;3.75;;;2.33;;
32788;SDS011;19141;48.980;8.410;2023-04-06T08:28:43;3.00;;;2.30;;
32788;SDS011;19141;48.980;8.410;2023-04-06T08:31:09;2.90;;;2.58;;
32788;SDS011;19141;48.980;8.410;2023-04-06T08:33:34;3.10;;;2.17;;
32788;SDS011;19141;48.980;8.410;2023-04-06T08:36:08;3.17;;;2.87;;
32788;SDS011;19141;48.980;8.410;2023-04-06T08:38:35;3.33;;;2.80;;
32788;SDS011;19141;48.980;8.410;2023-04-06T08:41:06;5.10;;;2.75;;
32788;SDS011;19141;48.980;8.410;2023-04-06T08:43:41;2.95;;;2.67;;
32788;SDS011;19141;48.980;8.410;2023-04-06T08:46:09;4.18;;;2.80;;
32788;SDS011;19141;48.980;8.410;2023-04-06T08:48:36;2.63;;;2.40;;
32788;SDS011;19141;48.980;8.410;2023-04-06T08:51:03;4.53;;;2.67;;
32788;SDS011;19141;48.980;8.410;2023-04-06T08:53:29;4.35;;;2.85;;
32788;SDS011;19141;48.980;8.410;2023-04-06T08:55:55;3.17;;;2.45;;
32788;SDS011;19141;48.980;8.410;2023-04-06T08:58:23;3.83;;;3.03;;
32788;SDS011;19141;48.980;8.410;2023-04-06T09:00:49;3.50;;;3.00;;
32788;SDS011;19141;48.980;8.410;2023-04-06T09:03:16;3.20;;;2.58;;
32788;SDS011;19141;48.980;8.410;2023-04-06T09:05:42;4.28;;;2.70;;
32788;SDS011;19141;48.980;8.410;2023-04-06T09:08:09;7.18;;;2.83;;
32788;SDS011;19141;48.980;8.410;2023-04-06T09:10:35;3.70;;;2.28;;
32788;SDS011;19141;48.980;8.410;2023-04-06T09:13:04;3.60;;;2.67;;
32788;SDS011;19141;48.980;8.410;2023-04-06T09:15:30;5.28;;;2.78;;
32788;SDS011;19141;48.980;8.410;2023-04-06T09:17:56;4.70;;;2.90;;
32788;SDS011;19141;48.980;8.410;2023-04-06T09:20:22;5.78;;;2.90;;
32788;SDS011;19141;48.980;8.410;2023-04-06T09:22:51;2.90;;;2.40;;
32788;SDS011;19141;48.980;8.410;2023-04-06T09:25:23;5.00;;;2.60;;
32788;SDS011;19141;48.980;8.410;2023-04-06T09:27:58;2.85;;;2.58;;
32788;SDS011;19141;48.980;8.410;2023-04-06T09:30:25;3.75;;;2.58;;
32788;SDS011;19141;48.980;8.410;2023-04-06T09:32:52;3.97;;;2.70;;
32788;SDS011;19141;48.980;8.410;2023-04-06T09:35:20;4.07;;;2.80;;
32788;SDS011;19141;48.980;8.410;2023-04-06T09:37:47;5.43;;;2.78;;
32788;SDS011;19141;48.980;8.410;2023-04-06T09:40:13;6.20;;;2.60;;
32788;SDS011;19141;48.980;8.410;2023-04-06T09:42:42;4.25;;;2.50;;
32788;SDS011;19141;48.980;8.410;2023-04-06T09:45:10;3.60;;;2.50;;
32788;SDS011;19141;48.980;8.410;2023-04-06T09:47:36;4.35;;;2.65;;
32788;SDS011;19141;48.980;8.410;2023-04-06T09:50:02;3.22;;;2.42;;
32788;SDS011;19141;48.980;8.410;2023-04-06T09:52:32;4.00;;;2.63;;
32788;SDS011;19141;48.980;8.410;2023-04-06T09:55:03;3.40;;;2.45;;
32788;SDS011;19141;48.980;8.410;2023-04-06T09:57:48;3.47;;;2.60;;
32788;SDS011;19141;48.980;8.410;2023-04-06T10:00:18;3.88;;;2.97;;
32788;SDS011;19141;48.980;8.410;2023-04-06T10:02:58;3.65;;;2.90;;
32788;SDS011;19141;48.980;8.410;2023-04-06T10:08:10;5.10;;;3.50;;
32788;SDS011;19141;48.980;8.410;2023-04-06T10:10:37;5.93;;;3.05;;
32788;SDS011;19141;48.980;8.410;2023-04-06T10:13:03;4.40;;;3.08;;
32788;SDS011;19141;48.980;8.410;2023-04-06T10:15:29;4.53;;;3.15;;
32788;SDS011;19141;48.980;8.410;2023-04-06T10:17:56;4.20;;;2.97;;
32788;SDS011;19141;48.980;8.410;2023-04-06T10:20:36;5.00;;;3.15;;
32788;SDS011;19141;48.980;8.410;2023-04-06T10:23:06;4.97;;;3.45;;
32788;SDS011;19141;48.980;8.410;2023-04-06T10:25:39;3.70;;;3.00;;
32788;SDS011;19141;48.980;8.410;2023-04-06T10:28:05;4.60;;;3.10;;
32788;SDS011;19141;48.980;8.410;2023-04-06T10:30:32;3.85;;;2.83;;
32788;SDS011;19141;48.980;8.410;2023-04-06T10:32:59;4.10;;;2.95;;
32788;SDS011;19141;48.980;8.410;2023-04-06T10:35:24;4.88;;;3.13;;
32788;SDS011;19141;48.980;8.410;2023-04-06T10:38:02;4.13;;;3.00;;
32788;SDS011;19141;48.980;8.410;2023-04-06T10:40:29;4.20;;;3.30;;
32788;SDS011;19141;48.980;8.410;2023-04-06T10:43:06;5.68;;;3.67;;
32788;SDS011;19141;48.980;8.410;2023-04-06T10:45:33;4.18;;;3.00;;
32788;SDS011;19141;48.980;8.410;2023-04-06T10:47:59;5.43;;;3.15;;
32788;SDS011;19141;48.980;8.410;2023-04-06T10:50:25;4.18;;;2.83;;
32788;SDS011;19141;48.980;8.410;2023-04-06T10:53:00;4.75;;;3.00;;
32788;SDS011;19141;48.980;8.410;2023-04-06T10:55:27;4.00;;;2.88;;
32788;SDS011;19141;48.980;8.410;2023-04-06T10:57:53;5.07;;;3.63;;
32788;SDS011;19141;48.980;8.410;2023-04-06T11:00:19;4.57;;;3.28;;
32788;SDS011;19141;48.980;8.410;2023-04-06T11:02:45;3.90;;;3.25;;
32788;SDS011;19141;48.980;8.410;2023-04-06T11:05:11;3.65;;;3.10;;
32788;SDS011;19141;48.980;8.410;2023-04-06T11:07:38;3.72;;;2.97;;
32788;SDS011;19141;48.980;8.410;2023-04-06T11:10:04;5.45;;;3.30;;
32788;SDS011;19141;48.980;8.410;2023-04-06T11:12:31;4.95;;;3.33;;
32788;SDS011;19141;48.980;8.410;2023-04-06T11:14:58;4.55;;;3.30;;
32788;SDS011;19141;48.980;8.410;2023-04-06T11:17:29;5.03;;;3.53;;
32788;SDS011;19141;48.980;8.410;2023-04-06T11:19:55;4.95;;;3.90;;
32788;SDS011;19141;48.980;8.410;2023-04-06T11:22:22;4.65;;;3.33;;
32788;SDS011;19141;48.980;8.410;2023-04-06T11:24:47;5.28;;;3.30;;
32788;SDS011;19141;48.980;8.410;2023-04-06T11:27:14;4.65;;;3.45;;
32788;SDS011;19141;48.980;8.410;2023-04-06T11:29:41;4.57;;;3.50;;
32788;SDS011;19141;48.980;8.410;2023-04-06T11:32:07;3.80;;;3.22;;
32788;SDS011;19141;48.980;8.410;2023-04-06T11:34:34;4.30;;;2.90;;
32788;SDS011;19141;48.980;8.410;2023-04-06T11:37:02;4.00;;;3.15;;
32788;SDS011;19141;48.980;8.410;2023-04-06T11:39:31;4.70;;;2.80;;
32788;SDS011;19141;48.980;8.410;2023-04-06T11:42:02;5.03;;;2.83;;
32788;SDS011;19141;48.980;8.410;2023-04-06T11:47:03;3.75;;;3.13;;
32788;SDS011;19141;48.980;8.410;2023-04-06T11:49:30;5.13;;;3.40;;
32788;SDS011;19141;48.980;8.410;2023-04-06T11:51:57;4.57;;;3.33;;
32788;SDS011;19141;48.980;8.410;2023-04-06T11:54:33;3.95;;;3.15;;
32788;SDS011;19141;48.980;8.410;2023-04-06T11:57:04;4.30;;;2.63;;
32788;SDS011;19141;48.980;8.410;2023-04-06T11:59:30;4.20;;;2.65;;
32788;SDS011;19141;48.980;8.410;2023-04-06T12:01:57;3.90;;;3.03;;
32788;SDS011;19141;48.980;8.410;2023-04-06T12:04:23;3.90;;;3.05;;
32788;SDS011;19141;48.980;8.410;2023-04-06T12:06:49;3.47;;;2.53;;
32788;SDS011;19141;48.980;8.410;2023-04-06T12:09:15;4.93;;;3.20;;
32788;SDS011;19141;48.980;8.410;2023-04-06T12:11:41;5.55;;;2.97;;
32788;SDS011;19141;48.980;8.410;2023-04-06T12:14:07;4.30;;;3.03;;
32788;SDS011;19141;48.980;8.410;2023-04-06T12:16:33;5.15;;;3.10;;
32788;SDS011;19141;48.980;8.410;2023-04-06T12:18:59;6.93;;;3.95;;
32788;SDS011;19141;48.980;8.410;2023-04-06T12:21:26;5.18;;;2.88;;
32788;SDS011;19141;48.980;8.410;2023-04-06T12:23:53;3.97;;;2.90;;
32788;SDS011;19141;48.980;8.410;2023-04-06T12:26:19;4.00;;;2.80;;
32788;SDS011;19141;48.980;8.410;2023-04-06T12:28:44;4.43;;;2.83;;
32788;SDS011;19141;48.980;8.410;2023-04-06T12:31:16;5.22;;;3.30;;
32788;SDS011;19141;48.980;8.410;2023-04-06T12:33:43;6.05;;;3.25;;
32788;SDS011;19141;48.980;8.410;2023-04-06T12:36:15;7.40;;;3.67;;
32788;SDS011;19141;48.980;8.410;2023-04-06T12:38:44;5.05;;;3.40;;
32788;SDS011;19141;48.980;8.410;2023-04-06T12:41:10;4.85;;;3.33;;
32788;SDS011;19141;48.980;8.410;2023-04-06T12:43:36;4.32;;;3.33;;
32788;SDS011;19141;48.980;8.410;2023-04-06T12:46:02;5.25;;;3.22;;
32788;SDS011;19141;48.980;8.410;2023-04-06T12:48:28;4.25;;;3.13;;
32788;SDS011;19141;48.980;8.410;2023-04-06T12:50:54;5.80;;;2.95;;
32788;SDS011;19141;48.980;8.410;2023-04-06T12:53:20;6.07;;;3.30;;
32788;SDS011;19141;48.980;8.410;2023-04-06T12:55:46;5.43;;;4.00;;
32788;SDS011;19141;48.980;8.410;2023-04-06T12:58:11;5.85;;;3.33;;
32788;SDS011;19141;48.980;8.410;2023-04-06T13:00:39;5.57;;;3.63;;
32788;SDS011;19141;48.980;8.410;2023-04-06T13:03:04;4.95;;;3.50;;
32788;SDS011;19141;48.980;8.410;2023-04-06T13:05:30;5.43;;;3.47;;
32788;SDS011;19141;48.980;8.410;2023-04-06T13:07:55;4.00;;;2.75;;
32788;SDS011;19141;48.980;8.410;2023-04-06T13:10:22;5.40;;;3.20;;
32788;SDS011;19141;48.980;8.410;2023-04-06T13:12:47;5.22;;;3.15;;
32788;SDS011;19141;48.980;8.410;2023-04-06T13:15:13;4.00;;;3.15;;
32788;SDS011;19141;48.980;8.410;2023-04-06T13:17:38;6.55;;;3.33;;
32788;SDS011;19141;48.980;8.410;2023-04-06T13:20:04;4.10;;;2.85;;
32788;SDS011;19141;48.980;8.410;2023-04-06T13:22:31;5.83;;;3.10;;
32788;SDS011;19141;48.980;8.410;2023-04-06T13:24:56;3.60;;;2.60;;
32788;SDS011;19141;48.980;8.410;2023-04-06T13:27:22;4.80;;;2.50;;
32788;SDS011;19141;48.980;8.410;2023-04-06T13:29:47;3.47;;;2.60;;
32788;SDS011;19141;48.980;8.410;2023-04-06T13:32:13;3.25;;;2.28;;
32788;SDS011;19141;48.980;8.410;2023-04-06T13:34:38;4.75;;;2.45;;
32788;SDS011;19141;48.980;8.410;2023-04-06T13:37:05;4.47;;;2.88;;
32788;SDS011;19141;48.980;8.410;2023-04-06T13:39:31;2.70;;;2.30;;
32788;SDS011;19141;48.980;8.410;2023-04-06T13:41:57;4.13;;;2.50;;
32788;SDS011;19141;48.980;8.410;2023-04-06T13:44:22;3.53;;;2.28;;
32788;SDS011;19141;48.980;8.410;2023-04-06T13:46:47;3.83;;;2.40;;
32788;SDS011;19141;48.980;8.410;2023-04-06T13:49:13;5.13;;;3.00;;
32788;SDS011;19141;48.980;8.410;2023-04-06T13:51:40;3.80;;;2.63;;
32788;SDS011;19141;48.980;8.410;2023-04-06T13:54:06;4.35;;;2.65;;
32788;SDS011;19141;48.980;8.410;2023-04-06T13:56:31;4.82;;;2.70;;
32788;SDS011;19141;48.980;8.410;2023-04-06T13:58:57;4.55;;;3.15;;
32788;SDS011;19141;48.980;8.410;2023-04-06T14:01:22;5.82;;;3.13;;
32788;SDS011;19141;48.980;8.410;2023-04-06T14:03:48;3.28;;;2.15;;
32788;SDS011;19141;48.980;8.410;2023-04-06T14:06:14;3.65;;;2.45;;
32788;SDS011;19141;48.980;8.410;2023-04-06T14:08:40;3.60;;;2.38;;
32788;SDS011;19141;48.980;8.410;2023-04-06T14:11:06;3.75;;;2.20;;
32788;SDS011;19141;48.980;8.410;2023-04-06T14:13:37;4.18;;;2.70;;
32788;SDS011;19141;48.980;8.410;2023-04-06T14:16:02;3.28;;;2.25;;
32788;SDS011;19141;48.980;8.410;2023-04-06T14:18:28;3.45;;;2.20;;
32788;SDS011;19141;48.980;8.410;2023-04-06T14:20:56;3.22;;;2.17;;
32788;SDS011;19141;48.980;8.410;2023-04-06T14:23:23;5.70;;;3.00;;
32788;SDS011;19141;48.980;8.410;2023-04-06T14:25:51;4.13;;;2.40;;
32788;SDS011;19141;48.980;8.410;2023-04-06T14:28:17;3.10;;;2.38;;
32788;SDS011;19141;48.980;8.410;2023-04-06T14:30:43;5.43;;;2.90;;
32788;SDS011;19141;48.980;8.410;2023-04-06T14:33:09;9.35;;;2.78;;
32788;SDS011;19141;48.980;8.410;2023-04-06T14:35:37;4.80;;;2.47;;
32788;SDS011;19141;48.980;8.410;2023-04-06T14:38:03;5.40;;;2.47;;
32788;SDS011;19141;48.980;8.410;2023-04-06T14:40:28;4.53;;;2.47;;
32788;SDS011;19141;48.980;8.410;2023-04-06T14:42:54;3.72;;;2.60;;
32788;SDS011;19141;48.980;8.410;2023-04-06T14:45:21;4.22;;;2.47;;
32788;SDS011;19141;48.980;8.410;2023-04-06T14:47:47;3.05;;;2.42;;
32788;SDS011;19141;48.980;8.410;2023-04-06T14:50:13;4.38;;;2.38;;
32788;SDS011;19141;48.980;8.410;2023-04-06T14:52:38;5.57;;;2.60;;
32788;SDS011;19141;48.980;8.410;2023-04-06T14:55:03;2.95;;;2.13;;
32788;SDS011;19141;48.980;8.410;2023-04-06T14:57:29;4.40;;;2.30;;
32788;SDS011;19141;48.980;8.410;2023-04-06T14:59:56;3.70;;;2.65;;
32788;SDS011;19141;48.980;8.410;2023-04-06T15:02:21;6.30;;;2.58;;
32788;SDS011;19141;48.980;8.410;2023-04-06T15:04:46;4.57;;;2.47;;
32788;SDS011;19141;48.980;8.410;2023-04-06T15:07:12;3.90;;;2.50;;
32788;SDS011;19141;48.980;8.410;2023-04-06T15:09:38;5.20;;;2.60;;
32788;SDS011;19141;48.980;8.410;2023-04-06T15:12:03;4.05;;;2.47;;
32788;SDS011;19141;48.980;8.410;2023-04-06T15:14:29;4.55;;;2.78;;
32788;SDS011;19141;48.980;8.410;2023-04-06T15:16:54;6.07;;;2.97;;
32788;SDS011;19141;48.980;8.410;2023-04-06T15:19:19;4.40;;;2.85;;
32788;SDS011;19141;48.980;8.410;2023-04-06T15:21:46;6.20;;;2.67;;
32788;SDS011;19141;48.980;8.410;2023-04-06T15:24:11;5.53;;;2.97;;
32788;SDS011;19141;48.980;8.410;2023-04-06T15:26:37;3.95;;;2.22;;
32788;SDS011;19141;48.980;8.410;2023-04-06T15:29:02;4.03;;;2.38;;
32788;SDS011;19141;48.980;8.410;2023-04-06T15:31:28;3.55;;;2.28;;
32788;SDS011;19141;48.980;8.410;2023-04-06T15:33:54;4.53;;;2.72;;
32788;SDS011;19141;48.980;8.410;2023-04-06T15:36:27;3.78;;;2.45;;
32788;SDS011;19141;48.980;8.410;2023-04-06T15:38:55;6.55;;;2.80;;
32788;SDS011;19141;48.980;8.410;2023-04-06T15:41:22;4.85;;;2.85;;
32788;SDS011;19141;48.980;8.410;2023-04-06T15:43:47;4.30;;;2.70;;
32788;SDS011;19141;48.980;8.410;2023-04-06T15:46:14;6.70;;;3.30;;
32788;SDS011;19141;48.980;8.410;2023-04-06T15:48:40;6.15;;;2.83;;
32788;SDS011;19141;48.980;8.410;2023-04-06T15:51:06;4.57;;;2.45;;
32788;SDS011;19141;48.980;8.410;2023-04-06T15:53:32;4.82;;;3.15;;
32788;SDS011;19141;48.980;8.410;2023-04-06T15:55:58;5.40;;;2.85;;
32788;SDS011;19141;48.980;8.410;2023-04-06T15:58:27;4.63;;;2.72;;
32788;SDS011;19141;48.980;8.410;2023-04-06T16:00:53;9.32;;;3.13;;
32788;SDS011;19141;48.980;8.410;2023-04-06T16:03:19;5.47;;;2.92;;
32788;SDS011;19141;48.980;8.410;2023-04-06T16:05:45;6.05;;;3.15;;
32788;SDS011;19141;48.980;8.410;2023-04-06T16:08:11;6.68;;;3.03;;
32788;SDS011;19141;48.980;8.410;2023-04-06T16:10:40;6.38;;;2.72;;
32788;SDS011;19141;48.980;8.410;2023-04-06T16:13:06;5.97;;;2.90;;
32788;SDS011;19141;48.980;8.410;2023-04-06T16:15:32;5.43;;;3.30;;
32788;SDS011;19141;48.980;8.410;2023-04-06T16:17:58;6.63;;;3.10;;
32788;SDS011;19141;48.980;8.410;2023-04-06T16:20:23;5.45;;;3.05;;
32788;SDS011;19141;48.980;8.410;2023-04-06T16:22:49;4.95;;;2.50;;
32788;SDS011;19141;48.980;8.410;2023-04-06T16:25:14;5.88;;;3.50;;
32788;SDS011;19141;48.980;8.410;2023-04-06T16:27:40;8.13;;;3.15;;
32788;SDS011;19141;48.980;8.410;2023-04-06T16:30:06;7.65;;;3.22;;
32788;SDS011;19141;48.980;8.410;2023-04-06T16:32:32;6.68;;;3.15;;
32788;SDS011;19141;48.980;8.410;2023-04-06T16:34:58;5.72;;;2.80;;
32788;SDS011;19141;48.980;8.410;2023-04-06T16:37:24;3.08;;;2.20;;
32788;SDS011;19141;48.980;8.410;2023-04-06T16:39:50;4.25;;;2.75;;
32788;SDS011;19141;48.980;8.410;2023-04-06T16:42:17;4.30;;;2.22;;
32788;SDS011;19141;48.980;8.410;2023-04-06T16:44:44;4.72;;;2.65;;
32788;SDS011;19141;48.980;8.410;2023-04-06T16:47:13;2.88;;;2.22;;
32788;SDS011;19141;48.980;8.410;2023-04-06T16:49:39;4.30;;;2.38;;
32788;SDS011;19141;48.980;8.410;2023-04-06T16:52:04;3.50;;;2.28;;
32788;SDS011;19141;48.980;8.410;2023-04-06T16:54:30;3.47;;;2.03;;
32788;SDS011;19141;48.980;8.410;2023-04-06T16:56:58;5.22;;;2.22;;
32788;SDS011;19141;48.980;8.410;2023-04-06T16:59:26;2.97;;;1.90;;
32788;SDS011;19141;48.980;8.410;2023-04-06T17:01:51;3.25;;;1.83;;
32788;SDS011;19141;48.980;8.410;2023-04-06T17:04:17;3.33;;;2.15;;
32788;SDS011;19141;48.980;8.410;2023-04-06T17:06:42;4.47;;;2.50;;
32788;SDS011;19141;48.980;8.410;2023-04-06T17:09:08;3.00;;;1.95;;
32788;SDS011;19141;48.980;8.410;2023-04-06T17:11:34;3.38;;;2.33;;
32788;SDS011;19141;48.980;8.410;2023-04-06T17:13:59;4.15;;;2.08;;
32788;SDS011;19141;48.980;8.410;2023-04-06T17:16:25;3.20;;;1.98;;
32788;SDS011;19141;48.980;8.410;2023-04-06T17:18:50;2.78;;;1.85;;
32788;SDS011;19141;48.980;8.410;2023-04-06T17:21:15;2.63;;;1.90;;
32788;SDS011;19141;48.980;8.410;2023-04-06T17:23:41;3.40;;;2.33;;
32788;SDS011;19141;48.980;8.410;2023-04-06T17:26:07;5.53;;;2.38;;
32788;SDS011;19141;48.980;8.410;2023-04-06T17:28:33;2.88;;;2.00;;
32788;SDS011;19141;48.980;8.410;2023-04-06T17:30:58;4.03;;;2.00;;
32788;SDS011;19141;48.980;8.410;2023-04-06T17:33:24;3.50;;;2.28;;
32788;SDS011;19141;48.980;8.410;2023-04-06T17:35:51;3.00;;;2.33;;
32788;SDS011;19141;48.980;8.410;2023-04-06T17:38:16;3.78;;;2.35;;
32788;SDS011;19141;48.980;8.410;2023-04-06T17:40:42;3.53;;;2.63;;
32788;SDS011;19141;48.980;8.410;2023-04-06T17:43:07;3.25;;;2.42;;
32788;SDS011;19141;48.980;8.410;2023-04-06T17:45:33;3.47;;;2.47;;
32788;SDS011;19141;48.980;8.410;2023-04-06T17:47:58;3.47;;;2.45;;
32788;SDS011;19141;48.980;8.410;2023-04-06T17:50:23;3.15;;;2.00;;
32788;SDS011;19141;48.980;8.410;2023-04-06T17:52:49;3.90;;;2.72;;
32788;SDS011;19141;48.980;8.410;2023-04-06T17:55:16;2.45;;;2.08;;
32788;SDS011;19141;48.980;8.410;2023-04-06T17:57:42;3.33;;;2.30;;
32788;SDS011;19141;48.980;8.410;2023-04-06T18:00:08;5.28;;;2.90;;
32788;SDS011;19141;48.980;8.410;2023-04-06T18:05:00;4.68;;;2.50;;
32788;SDS011;19141;48.980;8.410;2023-04-06T18:07:26;4.50;;;2.20;;
32788;SDS011;19141;48.980;8.410;2023-04-06T18:09:51;2.83;;;2.30;;
32788;SDS011;19141;48.980;8.410;2023-04-06T18:12:17;2.55;;;1.90;;
32788;SDS011;19141;48.980;8.410;2023-04-06T18:14:42;3.17;;;1.90;;
32788;SDS011;19141;48.980;8.410;2023-04-06T18:17:09;2.67;;;1.58;;
32788;SDS011;19141;48.980;8.410;2023-04-06T18:19:35;2.97;;;1.70;;
32788;SDS011;19141;48.980;8.410;2023-04-06T18:22:01;2.60;;;1.83;;
32788;SDS011;19141;48.980;8.410;2023-04-06T18:24:27;2.13;;;1.77;;
32788;SDS011;19141;48.980;8.410;2023-04-06T18:26:53;2.88;;;1.63;;
32788;SDS011;19141;48.980;8.410;2023-04-06T18:29:18;2.42;;;1.80;;
32788;SDS011;19141;48.980;8.410;2023-04-06T18:31:44;2.83;;;2.00;;
32788;SDS011;19141;48.980;8.410;2023-04-06T18:34:14;2.42;;;2.00;;
32788;SDS011;19141;48.980;8.410;2023-04-06T18:36:40;2.63;;;2.03;;
32788;SDS011;19141;48.980;8.410;2023-04-06T18:39:06;2.45;;;2.08;;
32788;SDS011;19141;48.980;8.410;2023-04-06T18:41:31;2.30;;;1.77;;
32788;SDS011;19141;48.980;8.410;2023-04-06T18:43:57;2.60;;;2.05;;
32788;SDS011;19141;48.980;8.410;2023-04-06T18:46:22;2.13;;;1.58;;
32788;SDS011;19141;48.980;8.410;2023-04-06T18:48:48;3.50;;;1.90;;
32788;SDS011;19141;48.980;8.410;2023-04-06T18:51:14;2.15;;;1.90;;
32788;SDS011;19141;48.980;8.410;2023-04-06T18:53:40;2.40;;;1.90;;
32788;SDS011;19141;48.980;8.410;2023-04-06T18:56:12;2.83;;;1.88;;
32788;SDS011;19141;48.980;8.410;2023-04-06T18:58:41;3.78;;;1.80;;
32788;SDS011;19141;48.980;8.410;2023-04-06T19:01:07;3.33;;;2.10;;
32788;SDS011;19141;48.980;8.410;2023-04-06T19:03:32;2.10;;;1.73;;
32788;SDS011;19141;48.980;8.410;2023-04-06T19:05:59;4.03;;;2.73;;
32788;SDS011;19141;48.980;8.410;2023-04-06T19:08:25;3.50;;;2.08;;
32788;SDS011;19141;48.980;8.410;2023-04-06T19:10:50;4.13;;;2.35;;
32788;SDS011;19141;48.980;8.410;2023-04-06T19:13:15;3.88;;;2.70;;
32788;SDS011;19141;48.980;8.410;2023-04-06T19:15:41;4.18;;;2.78;;
32788;SDS011;19141;48.980;8.410;2023-04-06T19:18:06;2.53;;;2.10;;